Time;durP1;ratioP1;P1;durP2;ratioP2;P2;SDS_P1;SDS_P2;PMS_P1;PMS_P2;Temp;Humidity;BMP_temperature;BMP_pressure;BME280_temperature;BME280_humidity;BME280_pressure;Samples;Min_cycle;Max_cycle;Signal;HPM_P1;HPM_P2
2022/12/08 00:00:06;;;;;;;65.13;52.85;;;;;;;;;;5037179;28;20104;-76
2022/12/08 00:02:32;;;;;;;68.43;54.30;;;;;;;;;;5027061;28;20854;-76
2022/12/08 00:10:25;;;;;;;67.95;53.63;;;;;;;;;;5029194;28;20167;-73
2022/12/08 00:12:50;;;;;;;75.68;60.72;;;;;;;;;;5027919;28;20360;-73
2022/12/08 00:15:15;;;;;;;65.25;50.80;;;;;;;;;;5036337;28;20487;-76
2022/12/08 00:17:41;;;;;;;63.00;48.08;;;;;;;;;;5032547;28;20039;-75
2022/12/08 00:20:06;;;;;;;66.65;50.20;;;;;;;;;;5027244;28;20021;-75
2022/12/08 00:22:32;;;;;;;67.05;48.67;;;;;;;;;;5033460;28;20037;-75
2022/12/08 00:24:57;;;;;;;63.30;49.97;;;;;;;;;;5031792;28;20025;-74
2022/12/08 00:27:22;;;;;;;60.22;48.75;;;;;;;;;;5033508;28;20107;-74
2022/12/08 00:29:48;;;;;;;70.22;55.97;;;;;;;;;;5033186;28;20025;-76
2022/12/08 00:32:13;;;;;;;67.43;52.95;;;;;;;;;;5025506;28;20115;-75
2022/12/08 00:34:38;;;;;;;56.65;44.75;;;;;;;;;;5035043;28;20025;-74
2022/12/08 00:37:04;;;;;;;59.78;46.05;;;;;;;;;;5026118;28;20030;-75
2022/12/08 00:39:29;;;;;;;58.72;45.15;;;;;;;;;;5027511;28;22804;-79
2022/12/08 00:42:13;;;;;;;62.95;46.65;;;;;;;;;;5031830;28;20029;-75
2022/12/08 00:44:39;;;;;;;68.10;51.55;;;;;;;;;;5033986;28;20028;-78
2022/12/08 00:47:04;;;;;;;66.60;51.95;;;;;;;;;;5033964;28;20017;-77
2022/12/08 00:49:30;;;;;;;61.08;46.50;;;;;;;;;;5031328;28;20416;-75
2022/12/08 00:51:55;;;;;;;57.08;43.05;;;;;;;;;;5022950;28;20033;-74
2022/12/08 00:54:21;;;;;;;81.80;67.53;;;;;;;;;;5034440;28;20103;-75
2022/12/08 00:56:47;;;;;;;61.70;48.80;;;;;;;;;;5037466;28;20036;-75
2022/12/08 00:59:13;;;;;;;57.42;41.70;;;;;;;;;;5034024;28;20025;-75
2022/12/08 01:01:38;;;;;;;50.88;39.53;;;;;;;;;;5032241;28;20025;-74
2022/12/08 01:04:04;;;;;;;52.00;39.45;;;;;;;;;;5034174;28;20423;-78
2022/12/08 01:06:30;;;;;;;54.28;42.05;;;;;;;;;;5030991;28;20095;-75
2022/12/08 01:08:55;;;;;;;52.00;39.63;;;;;;;;;;5024011;28;20033;-75
2022/12/08 01:11:21;;;;;;;53.25;39.03;;;;;;;;;;5035351;28;20338;-75
2022/12/08 01:13:46;;;;;;;50.38;38.97;;;;;;;;;;5033447;28;20037;-75
2022/12/08 01:16:21;;;;;;;48.42;38.15;;;;;;;;;;5021053;28;20033;-76
2022/12/08 01:18:47;;;;;;;41.75;34.17;;;;;;;;;;5034270;28;20040;-75
2022/12/08 01:21:12;;;;;;;63.92;49.38;;;;;;;;;;5034644;28;20017;-75
2022/12/08 01:23:38;;;;;;;81.75;60.17;;;;;;;;;;5024210;28;20459;-77
2022/12/08 01:26:07;;;;;;;67.32;50.60;;;;;;;;;;5030159;28;20021;-75
2022/12/08 01:28:33;;;;;;;79.20;54.58;;;;;;;;;;5032351;28;20030;-77
2022/12/08 01:30:59;;;;;;;69.63;51.72;;;;;;;;;;5033073;28;20044;-77
2022/12/08 01:33:24;;;;;;;72.07;54.63;;;;;;;;;;5037517;28;20139;-77
2022/12/08 01:35:50;;;;;;;69.60;52.47;;;;;;;;;;5038521;28;20182;-75
2022/12/08 01:38:15;;;;;;;70.05;52.22;;;;;;;;;;5040733;28;20040;-77
2022/12/08 01:40:41;;;;;;;64.03;48.85;;;;;;;;;;5038947;28;20030;-75
2022/12/08 01:43:09;;;;;;;63.10;49.63;;;;;;;;;;5031955;28;20036;-76
2022/12/08 01:45:35;;;;;;;56.63;44.42;;;;;;;;;;5032820;28;20048;-76
2022/12/08 01:48:05;;;;;;;67.05;52.42;;;;;;;;;;5038115;28;20029;-75
2022/12/08 01:50:31;;;;;;;74.75;58.42;;;;;;;;;;5036616;28;20086;-77
2022/12/08 01:52:59;;;;;;;79.63;60.90;;;;;;;;;;5027266;28;20033;-77
2022/12/08 01:55:27;;;;;;;73.43;55.50;;;;;;;;;;5037658;28;20033;-74
2022/12/08 01:57:54;;;;;;;64.97;48.67;;;;;;;;;;5036167;28;20048;-74
2022/12/08 02:00:20;;;;;;;71.85;51.75;;;;;;;;;;5038276;28;20025;-74
2022/12/08 02:03:00;;;;;;;74.88;54.55;;;;;;;;;;5037076;28;20456;-76
2022/12/08 02:05:27;;;;;;;59.55;42.92;;;;;;;;;;5038973;28;20112;-76
2022/12/08 02:07:54;;;;;;;49.95;37.28;;;;;;;;;;5035957;28;20095;-75
2022/12/08 02:10:20;;;;;;;46.20;34.22;;;;;;;;;;5029116;28;20052;-78
2022/12/08 02:12:48;;;;;;;40.78;32.38;;;;;;;;;;5030215;28;20084;-76
2022/12/08 02:15:13;;;;;;;46.72;35.33;;;;;;;;;;5038406;28;20031;-75
2022/12/08 02:17:48;;;;;;;52.60;39.30;;;;;;;;;;5037829;28;20104;-75
2022/12/08 02:20:28;;;;;;;58.65;44.20;;;;;;;;;;5028173;28;20496;-76
2022/12/08 02:22:59;;;;;;;76.60;52.88;;;;;;;;;;5038181;28;20029;-77
2022/12/08 02:25:43;;;;;;;67.13;49.63;;;;;;;;;;5038442;28;20086;-77
2022/12/08 02:28:14;;;;;;;75.97;52.47;;;;;;;;;;5039783;28;20116;-76
2022/12/08 02:30:39;;;;;;;91.63;64.55;;;;;;;;;;5037702;28;20059;-75
2022/12/08 02:33:23;;;;;;;86.65;60.83;;;;;;;;;;5036228;28;20033;-74
2022/12/08 02:35:48;;;;;;;88.93;64.70;;;;;;;;;;5037197;28;20029;-74
2022/12/08 02:38:17;;;;;;;109.50;82.10;;;;;;;;;;5038057;28;20033;-76
2022/12/08 02:40:47;;;;;;;94.15;67.40;;;;;;;;;;5038369;28;20021;-75
2022/12/08 02:43:26;;;;;;;104.25;71.00;;;;;;;;;;5032982;28;20025;-77
2022/12/08 02:45:54;;;;;;;105.10;74.03;;;;;;;;;;5035529;28;20033;-75
2022/12/08 02:48:20;;;;;;;99.65;70.13;;;;;;;;;;5035109;28;20024;-75
2022/12/08 02:50:45;;;;;;;92.40;61.95;;;;;;;;;;5032785;28;20043;-77
2022/12/08 02:53:11;;;;;;;84.47;57.88;;;;;;;;;;5036375;28;20032;-76
2022/12/08 02:55:43;;;;;;;82.97;59.80;;;;;;;;;;5035248;28;20021;-75
2022/12/08 02:58:17;;;;;;;86.95;62.15;;;;;;;;;;5036830;28;20071;-76
2022/12/08 03:00:51;;;;;;;76.05;55.25;;;;;;;;;;5036057;28;20017;-76
2022/12/08 03:03:42;;;;;;;89.10;64.15;;;;;;;;;;5036113;28;20041;-75
2022/12/08 03:06:08;;;;;;;84.20;61.13;;;;;;;;;;5036038;28;20025;-75
2022/12/08 03:08:45;;;;;;;103.28;76.30;;;;;;;;;;5036649;28;20039;-76
2022/12/08 03:11:29;;;;;;;97.63;70.00;;;;;;;;;;5036802;28;20048;-76
2022/12/08 03:13:57;;;;;;;91.15;67.32;;;;;;;;;;5035193;28;20037;-76
2022/12/08 03:16:25;;;;;;;104.57;74.93;;;;;;;;;;5035373;28;20124;-75
2022/12/08 03:18:55;;;;;;;105.28;76.82;;;;;;;;;;5025909;28;20040;-75
2022/12/08 03:21:21;;;;;;;100.10;71.88;;;;;;;;;;5033146;28;20119;-76
2022/12/08 03:23:47;;;;;;;101.50;71.20;;;;;;;;;;5033474;28;20451;-75
2022/12/08 03:26:17;;;;;;;104.43;72.78;;;;;;;;;;5028251;28;20344;-75
2022/12/08 03:28:43;;;;;;;90.30;64.95;;;;;;;;;;5033691;28;20017;-74
2022/12/08 03:31:11;;;;;;;117.80;81.13;;;;;;;;;;5027813;28;20103;-78
2022/12/08 03:33:39;;;;;;;89.68;63.50;;;;;;;;;;5030594;28;20120;-75
2022/12/08 03:36:06;;;;;;;95.72;67.63;;;;;;;;;;5029937;28;20033;-76
2022/12/08 03:38:39;;;;;;;90.72;67.07;;;;;;;;;;5034399;28;20040;-79
2022/12/08 03:41:19;;;;;;;80.03;59.60;;;;;;;;;;5026272;28;20025;-77
2022/12/08 03:43:51;;;;;;;90.40;63.97;;;;;;;;;;5035585;28;20110;-76
2022/12/08 03:46:17;;;;;;;87.65;63.05;;;;;;;;;;5033874;28;20106;-76
2022/12/08 03:48:43;;;;;;;81.25;57.83;;;;;;;;;;5036059;28;20092;-76
2022/12/08 03:51:08;;;;;;;81.18;58.20;;;;;;;;;;5019164;28;20040;-76
2022/12/08 03:53:34;;;;;;;86.57;62.47;;;;;;;;;;5028271;28;20037;-76
2022/12/08 03:55:59;;;;;;;78.85;56.70;;;;;;;;;;5032863;28;20028;-76
2022/12/08 03:58:24;;;;;;;90.30;65.47;;;;;;;;;;5036773;28;20184;-77
2022/12/08 04:00:50;;;;;;;85.03;59.60;;;;;;;;;;5034174;28;20170;-77
2022/12/08 04:03:15;;;;;;;84.70;60.38;;;;;;;;;;5036069;28;20060;-75
2022/12/08 04:05:40;;;;;;;104.10;73.18;;;;;;;;;;5028581;28;20537;-77
2022/12/08 04:08:06;;;;;;;105.85;72.35;;;;;;;;;;5032912;28;20048;-77
2022/12/08 04:10:31;;;;;;;106.25;75.50;;;;;;;;;;5034631;28;20146;-76
2022/12/08 04:12:56;;;;;;;105.18;73.68;;;;;;;;;;5035645;28;20436;-77
2022/12/08 04:15:22;;;;;;;112.80;81.72;;;;;;;;;;5035638;28;20048;-76
2022/12/08 04:17:47;;;;;;;116.28;84.18;;;;;;;;;;5036871;28;20033;-76
2022/12/08 04:20:13;;;;;;;113.20;82.38;;;;;;;;;;5034998;28;20037;-76
2022/12/08 04:22:38;;;;;;;123.32;85.53;;;;;;;;;;5033466;28;20644;-76
2022/12/08 04:25:03;;;;;;;102.95;73.45;;;;;;;;;;5033474;28;20022;-78
2022/12/08 04:27:29;;;;;;;88.75;63.03;;;;;;;;;;5034841;28;20448;-76
2022/12/08 04:29:54;;;;;;;90.65;67.20;;;;;;;;;;5034338;28;20044;-76
2022/12/08 04:32:19;;;;;;;105.97;77.65;;;;;;;;;;5032991;28;20523;-77
2022/12/08 04:34:45;;;;;;;75.45;58.08;;;;;;;;;;5016536;28;20059;-75
2022/12/08 04:37:10;;;;;;;82.22;64.35;;;;;;;;;;5024737;28;20152;-74
2022/12/08 04:39:35;;;;;;;74.05;54.83;;;;;;;;;;5035389;28;20134;-75
2022/12/08 04:42:01;;;;;;;79.13;58.20;;;;;;;;;;5033269;28;20033;-75
2022/12/08 04:44:26;;;;;;;78.43;55.67;;;;;;;;;;5033025;28;20424;-75
2022/12/08 04:46:51;;;;;;;72.13;51.00;;;;;;;;;;5036392;28;20655;-76
2022/12/08 04:49:17;;;;;;;70.53;51.38;;;;;;;;;;5037168;28;20339;-75
2022/12/08 04:51:42;;;;;;;68.18;51.42;;;;;;;;;;5033733;28;20032;-75
2022/12/08 04:54:07;;;;;;;62.70;48.50;;;;;;;;;;5030927;28;20033;-75
2022/12/08 04:56:33;;;;;;;61.83;45.20;;;;;;;;;;5036694;28;20029;-76
2022/12/08 04:58:58;;;;;;;58.72;43.67;;;;;;;;;;5021164;28;20033;-77
2022/12/08 05:01:24;;;;;;;58.92;43.13;;;;;;;;;;5020491;28;20539;-75
2022/12/08 05:03:49;;;;;;;50.15;37.03;;;;;;;;;;5021898;28;20029;-75
2022/12/08 05:06:14;;;;;;;47.55;34.83;;;;;;;;;;5023326;28;20021;-76
2022/12/08 05:08:40;;;;;;;59.97;42.58;;;;;;;;;;5026830;28;20029;-74
2022/12/08 05:11:07;;;;;;;64.15;46.33;;;;;;;;;;5027788;28;20033;-74
2022/12/08 05:13:32;;;;;;;71.35;51.35;;;;;;;;;;5028748;28;20131;-75
2022/12/08 05:16:05;;;;;;;93.68;64.38;;;;;;;;;;5034976;28;20159;-75
2022/12/08 05:18:31;;;;;;;96.57;66.97;;;;;;;;;;5038686;28;20078;-75
2022/12/08 05:20:56;;;;;;;90.95;67.03;;;;;;;;;;5037081;28;20025;-78
2022/12/08 05:23:22;;;;;;;85.15;61.63;;;;;;;;;;5040646;28;20029;-74
2022/12/08 05:25:47;;;;;;;110.22;92.38;;;;;;;;;;5038177;28;20454;-74
2022/12/08 05:28:12;;;;;;;88.28;71.57;;;;;;;;;;5028440;28;20737;-75
2022/12/08 05:30:38;;;;;;;72.20;52.40;;;;;;;;;;5027236;28;20025;-74
2022/12/08 05:33:03;;;;;;;84.93;60.47;;;;;;;;;;5033982;28;20026;-75
2022/12/08 05:35:28;;;;;;;76.60;54.95;;;;;;;;;;5037829;28;20030;-76
2022/12/08 05:37:54;;;;;;;89.07;59.42;;;;;;;;;;5039612;28;20037;-76
2022/12/08 05:40:19;;;;;;;81.65;56.28;;;;;;;;;;5036692;28;20107;-75
2022/12/08 05:42:44;;;;;;;70.80;50.45;;;;;;;;;;5038070;28;20074;-75
2022/12/08 05:45:10;;;;;;;65.90;47.95;;;;;;;;;;5024605;28;20344;-76
2022/12/08 05:47:35;;;;;;;62.05;45.00;;;;;;;;;;5017459;28;20376;-75
2022/12/08 05:50:00;;;;;;;53.05;37.88;;;;;;;;;;5026353;28;20084;-77
2022/12/08 05:52:26;;;;;;;44.55;35.15;;;;;;;;;;5031690;28;20057;-74
2022/12/08 05:54:52;;;;;;;36.33;27.83;;;;;;;;;;5021623;28;20028;-76
2022/12/08 05:57:17;;;;;;;35.40;28.58;;;;;;;;;;5020906;28;20345;-74
2022/12/08 05:59:42;;;;;;;39.53;31.02;;;;;;;;;;5026813;28;20033;-76
2022/12/08 06:02:08;;;;;;;59.15;49.17;;;;;;;;;;5031790;28;20060;-76
2022/12/08 06:04:34;;;;;;;72.50;56.20;;;;;;;;;;5037106;28;20131;-75
2022/12/08 06:06:59;;;;;;;65.60;50.28;;;;;;;;;;5036029;28;20040;-75
2022/12/08 06:09:24;;;;;;;52.55;40.03;;;;;;;;;;5036110;28;20025;-73
2022/12/08 06:11:50;;;;;;;58.08;43.85;;;;;;;;;;5038211;28;20111;-76
2022/12/08 06:14:15;;;;;;;64.70;45.58;;;;;;;;;;5037866;28;20029;-76
2022/12/08 06:16:40;;;;;;;48.95;37.53;;;;;;;;;;5028896;28;20056;-76
2022/12/08 06:19:06;;;;;;;47.70;36.22;;;;;;;;;;5024784;28;20451;-75
2022/12/08 06:21:31;;;;;;;52.00;37.60;;;;;;;;;;5033357;28;20026;-77
2022/12/08 06:23:56;;;;;;;48.75;37.55;;;;;;;;;;5012436;28;20452;-75
2022/12/08 06:26:22;;;;;;;89.13;70.55;;;;;;;;;;5032481;28;20113;-75
2022/12/08 06:28:48;;;;;;;76.40;59.78;;;;;;;;;;5037179;28;20078;-77
2022/12/08 06:31:17;;;;;;;72.78;57.15;;;;;;;;;;5039244;28;20309;-77
2022/12/08 06:33:43;;;;;;;54.22;45.33;;;;;;;;;;5036335;28;20024;-75
2022/12/08 06:36:10;;;;;;;52.05;41.25;;;;;;;;;;5037750;28;20039;-76
2022/12/08 06:38:35;;;;;;;44.25;37.13;;;;;;;;;;5037828;28;20053;-80
2022/12/08 06:41:00;;;;;;;47.58;39.10;;;;;;;;;;5036011;28;20052;-78
2022/12/08 06:43:26;;;;;;;54.72;45.13;;;;;;;;;;5036531;28;20037;-77
2022/12/08 06:45:52;;;;;;;57.72;46.38;;;;;;;;;;5039381;28;20113;-76
2022/12/08 06:48:17;;;;;;;98.55;80.90;;;;;;;;;;5035558;28;20104;-76
2022/12/08 06:50:43;;;;;;;46.92;38.80;;;;;;;;;;5038586;28;20486;-75
2022/12/08 06:53:10;;;;;;;63.25;50.88;;;;;;;;;;5036824;28;21020;-76
2022/12/08 06:55:36;;;;;;;32.65;27.65;;;;;;;;;;5036234;28;20047;-75
2022/12/08 06:58:01;;;;;;;38.88;30.38;;;;;;;;;;5038962;28;20028;-76
2022/12/08 07:00:26;;;;;;;50.22;41.55;;;;;;;;;;5035030;28;20040;-75
2022/12/08 07:02:52;;;;;;;54.80;44.97;;;;;;;;;;5035010;28;20103;-75
2022/12/08 07:05:17;;;;;;;40.45;34.85;;;;;;;;;;5031841;28;20087;-76
2022/12/08 07:07:42;;;;;;;29.77;24.17;;;;;;;;;;5013736;28;20025;-76
2022/12/08 07:10:08;;;;;;;27.75;24.13;;;;;;;;;;5007640;28;20064;-75
2022/12/08 07:12:33;;;;;;;32.47;27.15;;;;;;;;;;5018259;28;21018;-74
2022/12/08 07:14:58;;;;;;;32.03;28.05;;;;;;;;;;5022625;28;20435;-74
2022/12/08 07:17:24;;;;;;;47.42;39.33;;;;;;;;;;5018028;28;20143;-74
2022/12/08 07:19:49;;;;;;;39.40;32.90;;;;;;;;;;5014044;28;20017;-78
2022/12/08 07:22:15;;;;;;;80.75;61.05;;;;;;;;;;5019637;28;20021;-74
2022/12/08 07:24:40;;;;;;;47.90;37.78;;;;;;;;;;5025577;28;20031;-77
2022/12/08 07:27:05;;;;;;;29.00;25.45;;;;;;;;;;5033638;28;20033;-75
2022/12/08 07:29:31;;;;;;;58.97;43.15;;;;;;;;;;5028930;28;20036;-75
2022/12/08 07:31:56;;;;;;;91.30;64.82;;;;;;;;;;5032467;28;20060;-74
2022/12/08 07:34:21;;;;;;;58.53;43.08;;;;;;;;;;5030413;28;20021;-75
2022/12/08 07:36:47;;;;;;;106.68;75.57;;;;;;;;;;5031992;28;20057;-76
2022/12/08 07:39:12;;;;;;;45.28;37.22;;;;;;;;;;5020232;28;20025;-75
2022/12/08 07:41:37;;;;;;;54.70;41.38;;;;;;;;;;5025655;28;20105;-75
2022/12/08 07:44:03;;;;;;;55.00;43.53;;;;;;;;;;5029136;28;20078;-76
2022/12/08 07:46:28;;;;;;;157.45;93.25;;;;;;;;;;5022223;28;20538;-76
2022/12/08 07:48:55;;;;;;;77.90;56.47;;;;;;;;;;5024558;28;20017;-76
2022/12/08 07:51:21;;;;;;;67.30;46.10;;;;;;;;;;5033732;28;20029;-75
2022/12/08 07:53:47;;;;;;;59.95;42.95;;;;;;;;;;5034351;28;20039;-75
2022/12/08 07:56:13;;;;;;;75.75;52.70;;;;;;;;;;5032976;28;20021;-76
2022/12/08 07:58:39;;;;;;;83.28;55.10;;;;;;;;;;5020273;28;20094;-76
2022/12/08 08:01:04;;;;;;;70.40;50.25;;;;;;;;;;5030078;28;20033;-76
2022/12/08 08:03:29;;;;;;;128.02;91.82;;;;;;;;;;5023830;28;20036;-76
2022/12/08 08:06:00;;;;;;;93.63;68.38;;;;;;;;;;5022578;28;20029;-75
2022/12/08 08:08:26;;;;;;;111.28;79.45;;;;;;;;;;5022445;28;20032;-76
2022/12/08 08:10:51;;;;;;;122.05;98.03;;;;;;;;;;5023246;28;20053;-76
2022/12/08 08:13:16;;;;;;;79.70;64.53;;;;;;;;;;5021101;28;20043;-76
2022/12/08 08:15:42;;;;;;;40.15;35.55;;;;;;;;;;5025304;28;20056;-75
2022/12/08 08:18:07;;;;;;;36.65;31.73;;;;;;;;;;5036349;28;20036;-75
2022/12/08 08:20:32;;;;;;;31.25;25.88;;;;;;;;;;5026270;28;20025;-78
2022/12/08 08:22:58;;;;;;;44.53;36.33;;;;;;;;;;5020460;28;20029;-76
2022/12/08 08:25:23;;;;;;;59.72;42.13;;;;;;;;;;5020737;28;20456;-76
2022/12/08 08:27:49;;;;;;;201.27;124.70;;;;;;;;;;5017604;28;20119;-76
2022/12/08 08:30:15;;;;;;;70.63;48.28;;;;;;;;;;5024211;28;20033;-76
2022/12/08 08:32:41;;;;;;;53.40;38.83;;;;;;;;;;5019480;28;20029;-77
2022/12/08 08:35:06;;;;;;;43.45;32.42;;;;;;;;;;5022105;28;20044;-76
2022/12/08 08:37:32;;;;;;;79.03;52.38;;;;;;;;;;5022357;28;20048;-75
2022/12/08 08:39:57;;;;;;;43.25;31.48;;;;;;;;;;5021766;28;20020;-76
2022/12/08 08:42:22;;;;;;;39.35;30.88;;;;;;;;;;5022836;28;20376;-76
2022/12/08 08:44:48;;;;;;;48.30;37.00;;;;;;;;;;5026041;28;20060;-77
2022/12/08 08:47:13;;;;;;;41.15;36.63;;;;;;;;;;5022817;28;20033;-76
2022/12/08 08:49:38;;;;;;;27.95;24.40;;;;;;;;;;5025337;28;20025;-76
2022/12/08 08:52:04;;;;;;;36.80;30.27;;;;;;;;;;5005338;28;20073;-76
2022/12/08 08:54:30;;;;;;;89.15;58.03;;;;;;;;;;5022831;28;20029;-76
2022/12/08 08:56:56;;;;;;;49.90;38.30;;;;;;;;;;5024596;28;20029;-74
2022/12/08 08:59:21;;;;;;;27.00;23.65;;;;;;;;;;5024717;28;20020;-76
2022/12/08 09:01:47;;;;;;;34.28;28.08;;;;;;;;;;5034007;28;20329;-76
2022/12/08 09:04:12;;;;;;;67.15;49.00;;;;;;;;;;5021325;28;20026;-75
2022/12/08 09:06:38;;;;;;;58.83;45.80;;;;;;;;;;5026387;28;20021;-76
2022/12/08 09:09:03;;;;;;;36.65;32.53;;;;;;;;;;5030094;28;20459;-76
2022/12/08 09:11:29;;;;;;;35.58;31.75;;;;;;;;;;5034323;28;20049;-79
2022/12/08 09:13:54;;;;;;;41.97;37.53;;;;;;;;;;5024740;28;20029;-78
2022/12/08 09:16:20;;;;;;;36.35;32.47;;;;;;;;;;5027810;28;20119;-78
2022/12/08 09:18:48;;;;;;;65.80;59.38;;;;;;;;;;5021700;28;20032;-76
2022/12/08 09:21:15;;;;;;;51.85;46.65;;;;;;;;;;5029229;28;20108;-75
2022/12/08 09:23:41;;;;;;;47.10;42.45;;;;;;;;;;5033683;28;20032;-76
2022/12/08 09:26:06;;;;;;;30.30;27.20;;;;;;;;;;5028061;28;20037;-75
2022/12/08 09:28:32;;;;;;;27.90;25.02;;;;;;;;;;5020856;28;20028;-75
2022/12/08 09:30:57;;;;;;;22.92;20.60;;;;;;;;;;5023310;28;20020;-76
2022/12/08 09:33:22;;;;;;;25.80;23.10;;;;;;;;;;5019696;28;20037;-75
2022/12/08 09:35:48;;;;;;;56.85;45.50;;;;;;;;;;5022772;28;20024;-76
2022/12/08 09:38:13;;;;;;;49.17;41.13;;;;;;;;;;5023644;28;20293;-76
2022/12/08 09:40:46;;;;;;;37.45;29.95;;;;;;;;;;5024193;28;20113;-76
2022/12/08 09:43:17;;;;;;;51.30;37.03;;;;;;;;;;5022971;28;21184;-76
2022/12/08 09:45:43;;;;;;;29.88;24.80;;;;;;;;;;5022229;28;20017;-76
2022/12/08 09:48:16;;;;;;;30.67;27.38;;;;;;;;;;5021005;28;20328;-76
2022/12/08 09:50:55;;;;;;;128.20;62.70;;;;;;;;;;5021847;28;20479;-76
2022/12/08 09:53:20;;;;;;;57.05;42.03;;;;;;;;;;5019812;28;20039;-77
2022/12/08 09:55:49;;;;;;;79.53;42.67;;;;;;;;;;5028932;28;20359;-77
2022/12/08 09:58:30;;;;;;;34.03;24.73;;;;;;;;;;5039014;28;20104;-76
2022/12/08 10:00:56;;;;;;;37.53;26.42;;;;;;;;;;5027246;28;20039;-77
2022/12/08 10:03:23;;;;;;;37.22;29.90;;;;;;;;;;5034838;28;20054;-78
2022/12/08 10:06:11;;;;;;;53.58;37.10;;;;;;;;;;5002158;28;20028;-77
2022/12/08 10:08:49;;;;;;;19.73;16.95;;;;;;;;;;5025771;28;20032;-76
2022/12/08 10:11:18;;;;;;;28.92;20.90;;;;;;;;;;5028997;28;20034;-77
2022/12/08 10:13:54;;;;;;;33.50;29.77;;;;;;;;;;5024397;28;20413;-78
2022/12/08 10:16:22;;;;;;;48.42;39.30;;;;;;;;;;5028570;28;20064;-77
2022/12/08 10:18:52;;;;;;;44.35;35.15;;;;;;;;;;5023435;28;20112;-77
2022/12/08 10:21:19;;;;;;;36.95;30.25;;;;;;;;;;5026192;28;20127;-81
2022/12/08 10:23:47;;;;;;;26.88;23.98;;;;;;;;;;5026644;28;20112;-77
2022/12/08 10:26:14;;;;;;;62.35;50.38;;;;;;;;;;5026800;28;20025;-76
2022/12/08 10:28:40;;;;;;;48.58;38.00;;;;;;;;;;5027099;28;20020;-77
2022/12/08 10:31:05;;;;;;;64.50;47.58;;;;;;;;;;5024301;28;20033;-78
2022/12/08 10:33:31;;;;;;;35.28;29.10;;;;;;;;;;5020049;28;20111;-78
2022/12/08 10:35:57;;;;;;;26.50;24.02;;;;;;;;;;5020161;28;20098;-77
2022/12/08 10:38:25;;;;;;;27.92;25.02;;;;;;;;;;5015377;28;20021;-78
2022/12/08 10:40:52;;;;;;;37.88;33.83;;;;;;;;;;5018107;28;20436;-78
2022/12/08 10:43:20;;;;;;;47.50;37.83;;;;;;;;;;5019693;28;20115;-79
2022/12/08 10:45:46;;;;;;;35.22;30.80;;;;;;;;;;5017727;28;21471;-77
2022/12/08 10:48:20;;;;;;;36.85;28.70;;;;;;;;;;5029268;28;20021;-78
2022/12/08 10:50:45;;;;;;;35.05;29.17;;;;;;;;;;5035062;28;20341;-79
2022/12/08 10:53:13;;;;;;;34.15;30.08;;;;;;;;;;5028329;28;20067;-78
2022/12/08 10:55:43;;;;;;;35.40;31.58;;;;;;;;;;5021578;28;20028;-78
2022/12/08 10:58:28;;;;;;;37.08;31.80;;;;;;;;;;5026252;28;20022;-77
2022/12/08 11:00:55;;;;;;;30.48;27.17;;;;;;;;;;5025345;28;20448;-77
2022/12/08 11:03:27;;;;;;;38.95;33.90;;;;;;;;;;5024338;28;20037;-78
2022/12/08 11:05:54;;;;;;;26.20;22.98;;;;;;;;;;5021619;28;20017;-77
2022/12/08 11:08:20;;;;;;;24.75;22.20;;;;;;;;;;5024730;28;20036;-77
2022/12/08 11:10:45;;;;;;;25.05;22.40;;;;;;;;;;5023784;28;20061;-77
2022/12/08 11:13:22;;;;;;;88.68;66.57;;;;;;;;;;5021545;28;20399;-77
2022/12/08 11:15:48;;;;;;;89.38;68.50;;;;;;;;;;5025088;28;20152;-77
2022/12/08 11:18:21;;;;;;;80.65;65.05;;;;;;;;;;5022256;28;20112;-77
2022/12/08 11:20:54;;;;;;;79.75;65.35;;;;;;;;;;5004236;28;20378;-77
2022/12/08 11:23:21;;;;;;;55.45;47.92;;;;;;;;;;5034803;28;20036;-77
2022/12/08 11:25:47;;;;;;;32.58;27.38;;;;;;;;;;5024561;28;20143;-77
2022/12/08 11:28:12;;;;;;;41.72;34.00;;;;;;;;;;5031750;28;20027;-76
2022/12/08 11:30:42;;;;;;;41.13;35.85;;;;;;;;;;5031215;28;20017;-77
2022/12/08 11:33:07;;;;;;;53.30;46.58;;;;;;;;;;5029602;28;21389;-77
2022/12/08 11:35:35;;;;;;;36.83;33.00;;;;;;;;;;5033086;28;20037;-77
2022/12/08 11:38:05;;;;;;;27.95;25.08;;;;;;;;;;5036564;28;20078;-78
2022/12/08 11:40:33;;;;;;;28.05;24.88;;;;;;;;;;5033346;28;20047;-77
2022/12/08 11:43:04;;;;;;;45.90;40.70;;;;;;;;;;5033888;28;20029;-77
2022/12/08 11:45:31;;;;;;;58.47;52.10;;;;;;;;;;5032547;28;20025;-77
2022/12/08 11:48:02;;;;;;;44.92;40.05;;;;;;;;;;5026241;28;20025;-78
2022/12/08 11:50:38;;;;;;;31.50;28.15;;;;;;;;;;5032099;28;20033;-77
2022/12/08 11:53:04;;;;;;;29.08;25.85;;;;;;;;;;5034828;28;20037;-77
2022/12/08 11:55:38;;;;;;;31.70;28.27;;;;;;;;;;5035849;28;20071;-77
2022/12/08 11:58:23;;;;;;;35.13;31.25;;;;;;;;;;5031355;28;20025;-77
2022/12/08 12:00:49;;;;;;;38.80;30.27;;;;;;;;;;5035028;28;20089;-77
2022/12/08 12:03:19;;;;;;;33.47;27.27;;;;;;;;;;5028659;28;20419;-77
2022/12/08 12:05:54;;;;;;;33.80;28.30;;;;;;;;;;5031869;28;20037;-77
2022/12/08 12:08:38;;;;;;;28.13;24.38;;;;;;;;;;5027276;28;20032;-77
2022/12/08 12:14:35;;;;;;;37.80;33.40;;;;;;;;;;5024363;28;20103;-76
2022/12/08 12:17:03;;;;;;;50.35;40.95;;;;;;;;;;4970807;28;20535;-77
2022/12/08 12:19:30;;;;;;;49.67;36.00;;;;;;;;;;4971424;28;20029;-78
2022/12/08 12:21:56;;;;;;;47.50;39.15;;;;;;;;;;4973813;28;20526;-77
2022/12/08 12:24:25;;;;;;;34.70;31.00;;;;;;;;;;4975425;28;20130;-77
2022/12/08 12:26:51;;;;;;;;;;;;;;;;;;4971544;28;20145;-78
2022/12/08 12:29:18;;;;;;;41.50;34.37;;;;;;;;;;4968580;28;20005;-77
2022/12/08 12:31:48;;;;;;;50.88;40.60;;;;;;;;;;4971711;28;20077;-77
2022/12/08 12:34:28;;;;;;;53.30;43.08;;;;;;;;;;4972230;28;20494;-77
2022/12/08 12:37:07;;;;;;;43.28;36.25;;;;;;;;;;4971377;28;20043;-77
2022/12/08 12:39:44;;;;;;;37.22;33.22;;;;;;;;;;4964373;28;20030;-77
2022/12/08 12:42:29;;;;;;;47.85;40.03;;;;;;;;;;4972136;28;20042;-77
2022/12/08 12:45:10;;;;;;;39.58;35.15;;;;;;;;;;4965629;28;20096;-77
2022/12/08 12:47:54;;;;;;;53.08;45.15;;;;;;;;;;4973374;28;20120;-77
2022/12/08 12:50:31;;;;;;;117.63;84.32;;;;;;;;;;4976454;28;20106;-77
2022/12/08 12:52:58;;;;;;;78.82;55.83;;;;;;;;;;4979661;28;20052;-77
2022/12/08 12:55:24;;;;;;;118.35;77.30;;;;;;;;;;5027426;28;20040;-78
2022/12/08 12:57:54;;;;;;;57.60;43.72;;;;;;;;;;5023262;28;20033;-78
2022/12/08 13:00:19;;;;;;;;;;;;;;;;;;5021518;28;20840;-76
2022/12/08 13:02:47;;;;;;;55.63;43.57;;;;;;;;;;5025778;28;19912;-75
2022/12/08 13:05:25;;;;;;;71.03;51.30;;;;;;;;;;5036879;28;20028;-75
2022/12/08 13:07:59;;;;;;;34.55;30.50;;;;;;;;;;5021039;28;20497;-77
2022/12/08 13:10:30;;;;;;;41.67;34.92;;;;;;;;;;5021658;28;20049;-76
2022/12/08 13:13:04;;;;;;;34.05;29.65;;;;;;;;;;5022722;28;20080;-77
2022/12/08 13:15:40;;;;;;;33.20;28.13;;;;;;;;;;5024068;28;20029;-77
2022/12/08 13:18:15;;;;;;;68.70;59.28;;;;;;;;;;5027329;28;20083;-77
2022/12/08 13:20:44;;;;;;;95.40;77.18;;;;;;;;;;5034044;28;20418;-77
2022/12/08 13:23:12;;;;;;;57.25;49.20;;;;;;;;;;5034901;28;20072;-77
2022/12/08 13:25:37;;;;;;;65.15;58.00;;;;;;;;;;5032374;28;20029;-77
2022/12/08 13:28:15;;;;;;;59.70;48.42;;;;;;;;;;5037664;28;20052;-77
2022/12/08 13:30:47;;;;;;;104.07;75.07;;;;;;;;;;5036170;28;20104;-77
2022/12/08 13:33:17;;;;;;;37.75;30.75;;;;;;;;;;5033475;28;20047;-77
2022/12/08 13:35:46;;;;;;;29.38;26.23;;;;;;;;;;5032781;28;20344;-77
2022/12/08 13:38:16;;;;;;;44.47;39.83;;;;;;;;;;5038521;28;20124;-77
2022/12/08 13:40:42;;;;;;;47.22;42.58;;;;;;;;;;5040106;28;20032;-77
2022/12/08 13:43:26;;;;;;;34.75;31.25;;;;;;;;;;5030016;28;20689;-78
2022/12/08 13:45:53;;;;;;;26.55;23.70;;;;;;;;;;5025799;28;20067;-75
2022/12/08 13:48:19;;;;;;;36.92;32.65;;;;;;;;;;5024711;28;20029;-78
2022/12/08 13:50:50;;;;;;;42.08;35.42;;;;;;;;;;5032088;28;20364;-77
2022/12/08 13:53:37;;;;;;;38.42;34.22;;;;;;;;;;5035789;28;20037;-76
2022/12/08 13:56:02;;;;;;;41.97;37.55;;;;;;;;;;5026422;28;20099;-75
2022/12/08 13:58:29;;;;;;;32.10;28.90;;;;;;;;;;5036782;28;20032;-75
2022/12/08 14:00:57;;;;;;;29.10;24.77;;;;;;;;;;5026126;28;20426;-76
2022/12/08 14:03:23;;;;;;;26.17;23.23;;;;;;;;;;5035964;28;20059;-75
2022/12/08 14:05:48;;;;;;;27.20;24.45;;;;;;;;;;5034203;28;20148;-76
2022/12/08 14:08:43;;;;;;;29.10;26.08;;;;;;;;;;5039177;28;20098;-74
2022/12/08 14:11:11;;;;;;;38.13;33.10;;;;;;;;;;4951604;28;20055;-75
2022/12/08 14:13:36;;;;;;;35.70;31.90;;;;;;;;;;4940876;28;20390;-76
2022/12/08 14:16:02;;;;;;;54.75;49.03;;;;;;;;;;4937632;28;20118;-75
2022/12/08 14:18:29;;;;;;;40.67;36.40;;;;;;;;;;4952208;28;20274;-76
2022/12/08 14:21:00;;;;;;;53.03;47.25;;;;;;;;;;4951469;28;20055;-76
2022/12/08 14:23:25;;;;;;;38.00;34.20;;;;;;;;;;4957868;28;20473;-75
2022/12/08 14:25:51;;;;;;;31.70;28.38;;;;;;;;;;4954955;28;20063;-75
2022/12/08 14:28:17;;;;;;;35.53;31.73;;;;;;;;;;4954161;28;20035;-76